KPTB/PTB METAR and TAF weather

Enter ICAO airport designator
Station Type Date Time Source
KPTB METAR 2024/06/14 02:35 UTC NOAA

KPTB 140235Z AUTO 00000KT 10SM CLR 23/17 A3000 RMK AO2 T02270172


Station Type Date Time Source
KPTB Decoded METAR 2024/06/14 02:35 UTC NOAA

Petersburg, Dinwiddie County Airport, VA, United States (KPTB) 37-11N 077-31W
Jun 13, 2024 - 10:35 PM EDT / 2024.06.14 0235 UTC
Wind: Calm:0
Visibility: 10 mile(s):0
Sky conditions: clear
Temperature: 72.9 F (22.7 C)
Dew Point: 63.0 F (17.2 C)
Relative Humidity: 71%
Pressure (altimeter): 30 in. Hg (1015 hPa)
ob: KPTB 140235Z AUTO 00000KT 10SM CLR 23/17 A3000 RMK AO2 T02270172
cycle: 2

Station Type Date Time Source
KPTB TAF UTC NOAA

Error!

Example: see airport list